Time;durP1;ratioP1;P1;durP2;ratioP2;P2;SDS_P1;SDS_P2;PMS_P1;PMS_P2;Temp;Humidity;BMP_temperature;BMP_pressure;BME280_temperature;BME280_humidity;BME280_pressure;Samples;Min_cycle;Max_cycle;Signal;HPM_P1;HPM_P2
2023/02/19 00:01:30;;;;;;;;;6.00;6.00;;;;;11.42;73.00;101708.72;5057761;28;45808;-76
2023/02/19 00:03:59;;;;;;;;;11.50;11.50;;;;;11.39;73.54;101712.28;5057972;28;45331;-77
2023/02/19 00:06:27;;;;;;;;;9.50;9.50;;;;;11.37;73.43;101722.88;5058251;28;45481;-77
2023/02/19 00:08:52;;;;;;;;;18.25;18.25;;;;;11.37;73.73;101724.63;5060148;28;45269;-78
2023/02/19 00:11:20;;;;;;;;;12.00;12.00;;;;;11.36;73.39;101715.00;5063874;28;46398;-76
2023/02/19 00:13:48;;;;;;;;;14.75;13.00;;;;;11.29;73.65;101713.41;5061232;28;45296;-76
2023/02/19 00:16:17;;;;;;;;;18.75;18.75;;;;;11.31;74.15;101715.13;5060533;28;45299;-76
2023/02/19 00:18:43;;;;;;;;;11.25;11.25;;;;;11.30;74.14;101733.56;5045685;28;45419;-78
2023/02/19 00:21:09;;;;;;;;;14.25;14.25;;;;;11.27;74.25;101712.59;5064175;28;45423;-78
2023/02/19 00:23:35;;;;;;;;;12.75;12.75;;;;;11.27;74.33;101709.94;5044160;28;45322;-78
2023/02/19 00:26:05;;;;;;;;;14.00;14.00;;;;;11.22;74.43;101707.44;5059668;28;45237;-77
2023/02/19 00:28:31;;;;;;;;;10.00;10.00;;;;;11.25;74.37;101707.38;5058728;28;45342;-75
2023/02/19 00:31:15;;;;;;;;;13.75;13.75;;;;;11.20;74.38;101699.56;5057661;28;45993;-76
2023/02/19 00:33:40;;;;;;;;;12.00;12.00;;;;;11.22;74.52;101713.56;5058583;28;45435;-77
2023/02/19 00:36:06;;;;;;;;;28.50;27.75;;;;;11.12;75.22;101696.25;5057873;28;45343;-77
2023/02/19 00:38:35;;;;;;;;;14.50;14.50;;;;;11.18;75.12;101703.16;5058659;28;45206;-76
2023/02/19 00:41:17;;;;;;;;;14.25;14.25;;;;;11.19;75.09;101702.25;5063310;28;45280;-77
2023/02/19 00:43:49;;;;;;;;;15.75;15.75;;;;;11.18;75.37;101690.00;5064296;28;45253;-75
2023/02/19 00:46:30;;;;;;;;;11.50;11.50;;;;;11.17;75.35;101699.66;5059758;28;45346;-79
2023/02/19 00:48:56;;;;;;;;;16.75;16.75;;;;;11.14;76.34;101670.75;5057692;28;45523;-77
2023/02/19 00:51:24;;;;;;;;;42.50;37.50;;;;;11.18;76.19;101690.00;5057281;28;45482;-77
2023/02/19 00:53:50;;;;;;;;;10.75;10.75;;;;;11.15;75.88;101692.72;5039049;28;45490;-78
2023/02/19 00:56:15;;;;;;;;;11.50;11.50;;;;;11.16;76.13;101689.16;5057292;28;45353;-76
2023/02/19 00:58:40;;;;;;;;;15.00;13.25;;;;;11.17;76.18;101678.59;5057930;28;45541;-77
2023/02/19 01:01:09;;;;;;;;;10.50;10.50;;;;;11.17;76.08;101681.22;5057251;28;45413;-76
2023/02/19 01:03:35;;;;;;;;;12.25;12.25;;;;;11.15;76.47;101679.53;5057254;28;45228;-77
2023/02/19 01:06:09;;;;;;;;;6.00;6.00;;;;;11.11;76.68;101673.47;5059354;28;45208;-75
2023/02/19 01:08:35;;;;;;;;;14.00;13.25;;;;;11.07;76.87;101674.44;5061988;28;45243;-78
2023/02/19 01:11:01;;;;;;;;;12.75;12.75;;;;;11.09;77.18;101680.53;5057499;28;46171;-76
2023/02/19 01:13:27;;;;;;;;;10.25;10.25;;;;;11.04;77.31;101682.44;5057008;28;45371;-78
2023/02/19 01:15:53;;;;;;;;;9.75;9.75;;;;;11.02;76.84;101686.88;5056856;28;45328;-76
2023/02/19 01:18:19;;;;;;;;;8.50;8.50;;;;;11.02;77.10;101687.72;5057054;28;45531;-76
2023/02/19 01:20:44;;;;;;;;;12.25;12.25;;;;;10.81;76.86;101655.75;5056803;28;45379;-76
2023/02/19 01:23:11;;;;;;;;;11.50;11.50;;;;;10.99;77.19;101679.88;5056623;28;45396;-77
2023/02/19 01:25:41;;;;;;;;;10.75;10.75;;;;;11.02;76.80;101689.50;5057420;28;45409;-76
2023/02/19 01:28:06;;;;;;;;;8.25;8.25;;;;;11.03;77.59;101685.97;5058969;28;45695;-76
2023/02/19 01:30:36;;;;;;;;;9.25;9.25;;;;;11.04;76.99;101677.16;5060840;28;46497;-77
2023/02/19 01:33:10;;;;;;;;;6.75;6.75;;;;;11.09;77.35;101688.44;5061073;28;45268;-77
2023/02/19 01:35:39;;;;;;;;;10.00;10.00;;;;;11.09;76.77;101691.06;5057146;28;53920;-77
2023/02/19 01:38:06;;;;;;;;;9.75;9.75;;;;;11.09;77.23;101693.72;5057160;28;45241;-77
2023/02/19 01:40:31;;;;;;;;;7.75;7.75;;;;;11.10;77.50;101698.06;5056166;28;45469;-76
2023/02/19 01:42:57;;;;;;;;;10.25;10.25;;;;;11.04;76.79;101688.53;5056276;28;45301;-76
2023/02/19 01:45:31;;;;;;;;;12.00;12.00;;;;;11.10;77.49;101698.91;5056555;28;45485;-76
2023/02/19 01:48:19;;;;;;;;;8.75;8.75;;;;;11.04;77.37;101680.63;5057072;28;46065;-77
2023/02/19 01:50:54;;;;;;;;;8.50;8.50;;;;;11.06;77.41;101693.78;5056860;28;45394;-77
2023/02/19 01:53:24;;;;;;;;;9.00;7.25;;;;;11.14;77.10;101712.03;5056734;28;45368;-78
2023/02/19 01:55:54;;;;;;;;;9.00;9.00;;;;;11.09;77.41;101691.06;5058380;28;45233;-77
2023/02/19 01:58:19;;;;;;;;;10.50;10.50;;;;;11.07;76.75;101692.88;5056656;28;45481;-78
2023/02/19 02:00:45;;;;;;;;;7.50;7.50;;;;;11.09;76.93;101697.19;5056742;28;45562;-75
2023/02/19 02:03:11;;;;;;;;;4.75;4.75;;;;;11.01;77.36;101691.25;5064055;28;45378;-75
2023/02/19 02:05:46;;;;;;;;;6.00;6.00;;;;;11.07;77.26;101698.16;5059438;28;45272;-76
2023/02/19 02:10:57;;;;;;;;;2.50;2.50;;;;;11.01;77.22;101682.50;5056259;28;45308;-77
2023/02/19 02:13:23;;;;;;;;;6.50;6.50;;;;;11.00;77.08;101678.13;5055763;28;45181;-76
2023/02/19 02:15:57;;;;;;;;;6.75;6.75;;;;;11.07;77.35;101688.47;5056096;28;45285;-77
2023/02/19 02:18:37;;;;;;;;;6.25;6.25;;;;;11.06;77.69;101688.50;5056379;28;45333;-75
2023/02/19 02:21:06;;;;;;;;;7.00;7.00;;;;;11.07;77.35;101695.50;5037615;28;48283;-76
2023/02/19 02:24:16;;;;;;;;;5.00;5.00;;;;;11.14;76.84;101696.25;5056454;28;45265;-77
2023/02/19 02:27:11;;;;;;;;;4.25;4.25;;;;;11.15;76.81;101701.47;4993970;28;45397;-76
2023/02/19 02:30:20;;;;;;;;;3.50;3.50;;;;;11.16;76.48;101691.81;4977710;28;45551;-77
2023/02/19 02:32:52;;;;;;;;;5.00;5.00;;;;;11.16;76.85;101697.06;5037562;28;47913;-77
2023/02/19 02:35:23;;;;;;;;;5.50;5.50;;;;;11.08;76.44;101674.41;5055927;28;45400;-77
2023/02/19 02:37:50;;;;;;;;;6.50;5.00;;;;;11.16;76.63;101697.06;5056120;28;45277;-77
2023/02/19 02:40:16;;;;;;;;;5.25;5.25;;;;;11.13;76.66;101695.34;5056417;28;45518;-75
2023/02/19 02:42:42;;;;;;;;;3.25;3.25;;;;;11.11;76.23;101699.81;5056240;28;45570;-76
2023/02/19 02:45:35;;;;;;;;;5.25;4.00;;;;;11.10;76.14;101701.56;5037563;28;45353;-76
2023/02/19 02:48:14;;;;;;;;;3.25;3.25;;;;;11.12;76.17;101701.53;5056440;28;45269;-77
2023/02/19 02:50:55;;;;;;;;;4.00;4.00;;;;;11.12;76.15;101696.25;5055843;28;45291;-75
2023/02/19 02:56:15;;;;;;;;;4.00;4.00;;;;;11.13;76.31;101692.72;5055211;28;45352;-76
2023/02/19 02:58:42;;;;;;;;;5.00;4.50;;;;;11.16;76.35;101695.28;5037428;28;45244;-76
2023/02/19 03:04:20;;;;;;;;;0.00;0.00;;;;;11.12;75.46;101693.63;5055332;28;45238;-77
2023/02/19 03:06:46;;;;;;;;;4.25;4.25;;;;;11.12;75.45;101701.53;5056098;28;45296;-78
2023/02/19 03:09:29;;;;;;;;;3.75;3.75;;;;;11.12;75.36;101701.53;5055745;28;45431;-78
2023/02/19 03:20:22;;;;;;;;;4.00;4.00;;;;;11.13;75.70;101699.75;5063869;27;45388;-75
2023/02/19 03:22:49;;;;;;;;;3.00;3.00;;;;;11.08;75.36;101686.72;5080372;28;45362;-77
2023/02/19 03:28:16;;;;;;;;;3.00;3.00;;;;;11.09;75.86;101686.66;5084421;27;45451;-76
2023/02/19 03:30:47;;;;;;;;;0.75;0.75;;;;;10.90;75.64;101653.78;5078862;28;45283;-76
2023/02/19 03:33:17;;;;;;;;;3.00;3.00;;;;;11.08;75.25;101684.94;5079061;28;45169;-77
2023/02/19 03:35:51;;;;;;;;;3.50;3.50;;;;;11.04;75.56;101679.78;5082426;27;46265;-76
2023/02/19 03:38:26;;;;;;;;;3.00;3.00;;;;;11.03;75.50;101680.69;5065065;28;45466;-77
2023/02/19 03:41:35;;;;;;;;;2.75;2.75;;;;;11.10;75.48;101691.03;5078947;27;45543;-78
2023/02/19 03:44:21;;;;;;;;;2.00;2.00;;;;;11.04;75.29;101670.09;5079086;27;45296;-77
2023/02/19 03:47:02;;;;;;;;;2.00;2.00;;;;;11.08;74.97;101676.19;5078871;28;45576;-77
2023/02/19 03:49:36;;;;;;;;;2.00;2.00;;;;;11.06;74.46;101688.50;5078866;28;45476;-76
2023/02/19 03:52:12;;;;;;;;;2.00;2.00;;;;;11.03;74.48;101684.19;5060064;28;45373;-76
2023/02/19 03:54:51;;;;;;;;;0.00;0.00;;;;;11.04;73.90;101690.31;5078798;27;45477;-77
2023/02/19 03:57:27;;;;;;;;;0.75;0.75;;;;;11.05;73.65;101690.28;5078302;27;46542;-76
2023/02/19 04:00:02;;;;;;;;;1.00;1.00;;;;;11.06;73.06;101697.25;5078775;28;45308;-76
2023/02/19 04:02:34;;;;;;;;;0.25;0.25;;;;;11.02;73.15;101700.88;5078968;27;45173;-75
2023/02/19 04:05:17;;;;;;;;;1.00;1.00;;;;;11.03;73.01;101702.59;5078608;27;45321;-76
2023/02/19 04:07:46;;;;;;;;;1.00;1.00;;;;;10.81;72.75;101663.63;5078220;28;46225;-76
2023/02/19 04:10:13;;;;;;;;;1.00;1.00;;;;;11.00;72.74;101710.56;5078076;27;45268;-74
2023/02/19 04:12:45;;;;;;;;;1.00;1.00;;;;;10.99;72.63;101713.25;5078602;27;45788;-76
2023/02/19 04:15:15;;;;;;;;;0.00;0.00;;;;;10.96;72.55;101717.69;5060349;28;45439;-77
2023/02/19 04:17:54;;;;;;;;;1.00;1.00;;;;;10.74;72.45;101680.47;5078053;27;46626;-74
2023/02/19 04:20:22;;;;;;;;;0.75;0.75;;;;;10.98;71.96;101719.44;5078034;27;45287;-76
2023/02/19 04:22:48;;;;;;;;;1.00;1.00;;;;;10.96;71.43;101716.81;5059256;28;45322;-74
2023/02/19 04:25:14;;;;;;;;;0.00;0.00;;;;;10.94;71.41;101718.63;5078121;28;45577;-75
2023/02/19 04:27:40;;;;;;;;;0.00;0.00;;;;;10.95;71.46;101723.88;5078157;27;45511;-75
2023/02/19 04:30:08;;;;;;;;;0.00;0.00;;;;;10.94;72.06;101718.63;5077798;27;45431;-75
2023/02/19 04:32:33;;;;;;;;;1.50;1.50;;;;;10.93;71.66;101717.78;5077733;28;45437;-76
2023/02/19 04:34:58;;;;;;;;;0.00;0.00;;;;;10.94;71.78;101731.78;5078316;27;45548;-75
2023/02/19 04:37:24;;;;;;;;;0.25;0.25;;;;;10.94;71.97;101735.31;5077536;28;53359;-74
2023/02/19 04:39:49;;;;;;;;;0.00;0.00;;;;;10.99;71.29;101747.50;5076792;27;45354;-75
2023/02/19 04:42:14;;;;;;;;;0.00;0.00;;;;;10.92;71.22;101723.94;5060351;28;52542;-76
2023/02/19 04:44:39;;;;;;;;;1.00;1.00;;;;;10.98;71.33;101733.44;5080369;28;46148;-74
2023/02/19 04:47:05;;;;;;;;;0.50;0.50;;;;;11.01;71.40;101730.75;5086545;28;45395;-76
2023/02/19 04:49:30;;;;;;;;;1.50;1.00;;;;;10.94;70.88;101718.63;5081484;27;45350;-76
2023/02/19 04:51:56;;;;;;;;;0.75;0.75;;;;;11.03;70.45;101725.44;5060502;28;45365;-75
2023/02/19 04:54:21;;;;;;;;;0.00;0.00;;;;;11.03;70.55;101726.31;5061194;28;53644;-76
2023/02/19 04:56:46;;;;;;;;;0.50;0.50;;;;;10.98;70.00;101727.34;5079612;28;46334;-75
2023/02/19 04:59:11;;;;;;;;;0.25;0.25;;;;;11.05;69.60;101744.72;5079982;28;47816;-76
2023/02/19 05:01:37;;;;;;;;;0.50;0.50;;;;;11.00;68.89;101744.81;5078756;28;45663;-73
2023/02/19 05:04:03;;;;;;;;;1.00;1.00;;;;;10.98;69.05;101740.50;5077561;27;47809;-76
2023/02/19 05:06:29;;;;;;;;;0.50;0.50;;;;;11.03;68.90;101752.63;5077379;28;46496;-74
2023/02/19 05:08:54;;;;;;;;;0.00;0.00;;;;;11.05;69.02;101760.50;5077500;28;45228;-76
2023/02/19 05:11:19;;;;;;;;;0.00;0.00;;;;;11.03;68.67;101749.16;5077385;27;45232;-75
2023/02/19 05:13:45;;;;;;;;;0.75;0.75;;;;;11.08;68.78;101766.56;5077772;28;45224;-74
2023/02/19 05:16:14;;;;;;;;;0.00;0.00;;;;;11.08;68.52;101768.34;5077501;27;45351;-74
2023/02/19 05:18:40;;;;;;;;;1.00;1.00;;;;;11.04;68.20;101767.53;5076959;28;45347;-75
2023/02/19 05:21:05;;;;;;;;;0.00;0.00;;;;;11.09;68.25;101767.44;5076937;27;45401;-75
2023/02/19 05:23:31;;;;;;;;;0.00;0.00;;;;;11.07;68.18;101766.59;5077445;28;45465;-76
2023/02/19 05:25:56;;;;;;;;;0.00;0.00;;;;;11.10;68.82;101772.66;5077170;27;46105;-73
2023/02/19 05:28:27;;;;;;;;;0.00;0.00;;;;;11.11;68.47;101774.38;5076975;28;45332;-74
2023/02/19 05:30:54;;;;;;;;;0.00;0.00;;;;;11.09;68.71;101772.69;5077538;28;45360;-76
2023/02/19 05:33:22;;;;;;;;;0.00;0.00;;;;;11.15;68.98;101791.00;5077229;27;45639;-75
2023/02/19 05:35:50;;;;;;;;;0.00;0.00;;;;;11.13;68.74;101778.75;5076768;27;46461;-74
2023/02/19 05:38:17;;;;;;;;;0.50;0.00;;;;;11.14;69.00;101793.69;5076747;28;45241;-76
2023/02/19 05:40:44;;;;;;;;;0.25;0.25;;;;;11.07;69.08;101790.31;5077297;27;45403;-76
2023/02/19 05:43:10;;;;;;;;;0.00;0.00;;;;;11.09;69.36;101791.97;5077335;28;45422;-76
2023/02/19 05:45:36;;;;;;;;;0.00;0.00;;;;;11.09;69.89;101794.63;5075979;28;46090;-75
2023/02/19 05:48:02;;;;;;;;;0.50;0.50;;;;;11.12;69.75;101793.69;5077449;27;45353;-76
2023/02/19 05:50:28;;;;;;;;;0.50;0.50;;;;;11.10;70.28;101790.22;5077387;28;45368;-76
2023/02/19 05:53:03;;;;;;;;;0.00;0.00;;;;;11.05;69.70;101794.75;5025462;28;45483;-76
2023/02/19 05:55:29;;;;;;;;;1.00;1.00;;;;;10.96;69.64;101786.16;5075623;27;46824;-77
2023/02/19 05:57:54;;;;;;;;;1.00;1.00;;;;;11.01;70.17;101793.06;5076408;28;45477;-76
2023/02/19 06:00:20;;;;;;;;;1.00;1.00;;;;;11.04;70.24;101795.63;5058504;28;45284;-76
2023/02/19 06:02:46;;;;;;;;;1.00;1.00;;;;;11.06;70.14;101802.59;5076851;28;45431;-75
2023/02/19 06:05:11;;;;;;;;;0.75;0.75;;;;;11.07;69.81;101796.41;5076920;28;46622;-76
2023/02/19 06:07:38;;;;;;;;;1.50;1.50;;;;;11.08;69.55;101792.88;5076804;27;45394;-75
2023/02/19 06:10:05;;;;;;;;;1.00;1.00;;;;;11.09;69.46;101805.16;5083928;28;45293;-76
2023/02/19 06:12:31;;;;;;;;;1.25;1.25;;;;;11.08;69.87;101806.06;5078451;28;45378;-74
2023/02/19 06:14:56;;;;;;;;;2.00;2.00;;;;;11.07;69.64;101804.31;5076726;28;45513;-77
2023/02/19 06:17:22;;;;;;;;;1.00;1.00;;;;;11.02;69.52;101798.28;5076670;28;45349;-75
2023/02/19 06:19:47;;;;;;;;;1.00;1.00;;;;;11.02;69.42;101800.94;5076489;27;45242;-75
2023/02/19 06:22:14;;;;;;;;;1.50;1.50;;;;;11.00;69.80;101796.63;5076454;28;45487;-75
2023/02/19 06:24:39;;;;;;;;;1.75;1.75;;;;;10.93;69.66;101791.47;5077180;28;45410;-75
2023/02/19 06:27:06;;;;;;;;;2.00;2.00;;;;;11.02;68.97;101805.34;5079510;28;57791;-75
2023/02/19 06:29:31;;;;;;;;;1.00;1.00;;;;;11.00;69.08;101812.41;5061355;28;45274;-75
2023/02/19 06:31:57;;;;;;;;;2.75;2.75;;;;;10.96;68.90;101815.09;5079029;28;45457;-75
2023/02/19 06:34:23;;;;;;;;;2.50;2.50;;;;;10.95;68.81;101816.00;5076996;28;46330;-75
2023/02/19 06:36:49;;;;;;;;;2.00;2.00;;;;;10.94;68.79;101808.13;5078503;28;45392;-75
2023/02/19 06:39:14;;;;;;;;;3.00;3.00;;;;;10.92;68.55;101818.72;5080116;27;45338;-76
2023/02/19 06:41:40;;;;;;;;;3.00;3.00;;;;;10.81;68.35;101799.66;5062784;28;45323;-75
2023/02/19 06:44:05;;;;;;;;;3.00;3.00;;;;;10.93;68.71;101822.19;5077706;28;45504;-75
2023/02/19 06:46:30;;;;;;;;;3.00;3.00;;;;;10.90;68.09;101833.66;5076805;28;45406;-76
2023/02/19 06:48:56;;;;;;;;;1.75;1.75;;;;;10.85;68.37;101829.38;5076442;27;45376;-76
2023/02/19 06:51:23;;;;;;;;;3.00;3.00;;;;;10.88;68.04;101832.84;5076097;28;45594;-76
2023/02/19 06:53:48;;;;;;;;;1.00;1.00;;;;;10.88;67.94;101827.56;5076149;28;46360;-74
2023/02/19 06:56:38;;;;;;;;;1.50;1.50;;;;;10.86;68.25;101821.47;5076164;28;45264;-75
2023/02/19 06:59:06;;;;;;;;;2.00;2.00;;;;;10.86;68.79;101825.84;5075851;28;45358;-75
2023/02/19 07:01:33;;;;;;;;;2.00;1.25;;;;;10.89;68.42;101842.47;5076517;27;45390;-74
2023/02/19 07:03:59;;;;;;;;;3.50;3.50;;;;;10.88;68.98;101847.75;5057920;28;46305;-75
2023/02/19 07:06:26;;;;;;;;;3.25;3.25;;;;;10.93;68.43;101854.66;5075294;28;45234;-75
2023/02/19 07:08:53;;;;;;;;;2.75;2.75;;;;;10.93;68.47;101854.66;5075942;28;45362;-74
2023/02/19 07:11:18;;;;;;;;;3.75;3.00;;;;;10.85;68.83;101838.16;5076056;28;45378;-74
2023/02/19 07:13:44;;;;;;;;;3.25;3.25;;;;;10.96;68.77;101856.34;5075396;27;46102;-75
2023/02/19 07:16:10;;;;;;;;;3.75;3.75;;;;;10.97;68.97;101858.09;5076208;28;45449;-76
2023/02/19 07:18:37;;;;;;;;;3.00;3.00;;;;;11.00;68.30;101862.44;5058182;28;45448;-74
2023/02/19 07:21:13;;;;;;;;;2.50;2.50;;;;;11.02;68.12;101863.25;5064892;28;45378;-74
2023/02/19 07:23:39;;;;;;;;;2.00;2.00;;;;;11.01;68.34;101866.81;5054177;28;46023;-75
2023/02/19 07:26:11;;;;;;;;;2.00;2.00;;;;;10.95;68.01;101866.03;5055424;28;45115;-74
2023/02/19 07:28:38;;;;;;;;;2.00;2.00;;;;;10.93;67.64;101865.19;5055574;28;45391;-75
2023/02/19 07:31:04;;;;;;;;;3.00;3.00;;;;;10.89;67.46;101868.78;5059425;28;45581;-74
2023/02/19 07:33:29;;;;;;;;;4.00;4.00;;;;;10.79;67.93;101860.22;5059798;28;45889;-75
2023/02/19 07:35:55;;;;;;;;;3.75;3.75;;;;;10.84;67.90;101875.91;5055352;28;45209;-74
2023/02/19 07:38:23;;;;;;;;;2.00;2.00;;;;;10.88;67.52;101887.22;5036823;28;45269;-75
2023/02/19 07:40:57;;;;;;;;;3.00;3.00;;;;;10.89;67.83;101896.88;5056082;28;45516;-75
2023/02/19 07:43:24;;;;;;;;;2.00;2.00;;;;;10.90;68.01;101896.84;5036967;28;48227;-76
2023/02/19 07:45:49;;;;;;;;;4.00;4.00;;;;;10.92;68.22;101896.81;5054969;28;46281;-74
2023/02/19 07:48:15;;;;;;;;;5.50;5.50;;;;;10.93;68.13;101881.00;5054369;28;45460;-75
2023/02/19 07:50:40;;;;;;;;;4.00;4.00;;;;;10.98;68.07;101893.19;5037193;28;45430;-74
2023/02/19 07:53:06;;;;;;;;;4.75;4.00;;;;;10.94;67.22;101882.72;5036693;28;46019;-78
2023/02/19 07:55:32;;;;;;;;;4.50;4.50;;;;;10.96;67.17;101885.31;5055186;28;45827;-75
2023/02/19 07:57:59;;;;;;;;;3.25;3.25;;;;;11.03;66.81;101904.50;5054842;28;45197;-73
2023/02/19 08:00:25;;;;;;;;;2.00;2.00;;;;;11.06;66.72;101902.66;5058649;28;45492;-75
2023/02/19 08:03:00;;;;;;;;;3.00;3.00;;;;;11.01;66.12;101896.63;5039463;28;45550;-74
2023/02/19 08:05:36;;;;;;;;;4.50;4.50;;;;;11.08;65.59;101908.75;5059055;28;45334;-75
2023/02/19 08:08:02;;;;;;;;;3.00;3.00;;;;;11.11;65.42;101915.72;5060257;28;45599;-76
2023/02/19 08:13:21;;;;;;;;;2.00;2.00;;;;;11.07;65.12;101919.34;5058081;28;45960;-76
2023/02/19 08:15:54;;;;;;;;;4.00;4.00;;;;;11.04;65.82;101911.50;5058081;28;45256;-74
2023/02/19 08:18:23;;;;;;;;;2.00;2.00;;;;;11.07;65.85;101920.19;5058391;28;45284;-76
2023/02/19 08:20:48;;;;;;;;;2.75;2.75;;;;;11.11;65.54;101915.72;5059855;28;45343;-77
2023/02/19 08:23:14;;;;;;;;;2.00;2.00;;;;;11.05;65.98;101911.44;5059052;28;46258;-75
2023/02/19 08:25:41;;;;;;;;;4.50;3.50;;;;;11.10;65.97;101921.91;5060226;28;45384;-76
2023/02/19 08:28:08;;;;;;;;;3.00;3.00;;;;;11.12;65.98;101917.47;5060321;28;45384;-75
2023/02/19 08:30:37;;;;;;;;;3.25;3.25;;;;;11.14;65.76;101926.19;5058163;28;45194;-76
2023/02/19 08:33:04;;;;;;;;;4.00;4.00;;;;;11.14;66.16;101934.09;5057601;28;46367;-74
2023/02/19 08:35:29;;;;;;;;;1.75;1.75;;;;;11.11;66.09;101921.00;5057229;28;45380;-74
2023/02/19 08:37:58;;;;;;;;;3.00;3.00;;;;;11.14;66.18;101936.72;5057135;28;45319;-73
2023/02/19 08:40:24;;;;;;;;;3.50;3.50;;;;;11.16;65.54;101937.56;5057437;28;45600;-74
2023/02/19 08:42:50;;;;;;;;;5.00;5.00;;;;;11.07;65.91;101921.97;5038918;28;47001;-75
2023/02/19 08:45:15;;;;;;;;;2.00;2.00;;;;;11.14;66.00;101922.72;5057066;28;45198;-75
2023/02/19 08:47:41;;;;;;;;;4.00;4.00;;;;;11.09;65.99;101928.06;5039155;28;45292;-74
2023/02/19 08:50:07;;;;;;;;;2.50;2.50;;;;;11.10;65.89;101925.38;5057837;28;45339;-74
2023/02/19 08:52:33;;;;;;;;;4.00;4.00;;;;;11.15;65.60;101930.56;5054868;28;48052;-74
2023/02/19 08:54:58;;;;;;;;;3.50;3.50;;;;;11.18;65.55;101932.28;5079886;28;45376;-76
2023/02/19 08:57:25;;;;;;;;;3.75;3.75;;;;;11.18;64.95;101921.75;5058955;28;45322;-74
2023/02/19 08:59:50;;;;;;;;;3.00;3.00;;;;;11.16;64.50;101916.50;5058544;28;45475;-74
2023/02/19 09:02:16;;;;;;;;;2.75;2.75;;;;;11.27;64.39;101934.72;5057859;28;46284;-74
2023/02/19 09:04:41;;;;;;;;;3.00;3.00;;;;;11.33;64.50;101936.34;5056858;28;45432;-75
2023/02/19 09:07:22;;;;;;;;;3.25;3.25;;;;;11.34;64.47;101924.91;5057570;28;45400;-74
2023/02/19 09:09:48;;;;;;;;;2.25;2.25;;;;;11.43;63.55;101943.13;5038192;28;45364;-74
2023/02/19 09:12:13;;;;;;;;;2.00;2.00;;;;;11.46;63.74;101939.59;5038552;28;46016;-73
2023/02/19 09:14:39;;;;;;;;;3.25;3.25;;;;;11.40;63.44;101932.66;5057073;28;45292;-75
2023/02/19 09:17:06;;;;;;;;;6.25;6.25;;;;;11.53;63.33;101946.44;5056936;28;45462;-75
2023/02/19 09:19:32;;;;;;;;;2.50;2.50;;;;;11.50;62.51;101952.66;5039120;28;45561;-75
2023/02/19 09:21:58;;;;;;;;;13.25;13.25;;;;;11.45;62.84;101948.41;5056636;28;45366;-75
2023/02/19 09:24:24;;;;;;;;;4.50;4.50;;;;;11.51;63.06;101943.84;5056723;28;45328;-73
2023/02/19 09:26:53;;;;;;;;;5.25;5.25;;;;;11.63;62.62;101952.38;5056689;28;45261;-74
2023/02/19 09:29:19;;;;;;;;;2.00;2.00;;;;;11.63;61.93;101936.56;5056844;28;45373;-73
2023/02/19 09:31:45;;;;;;;;;2.25;2.25;;;;;11.62;61.90;101929.53;5056173;28;45347;-73
2023/02/19 09:34:10;;;;;;;;;1.75;1.75;;;;;11.59;61.74;101935.78;5056576;28;45344;-75
2023/02/19 09:36:36;;;;;;;;;1.00;1.00;;;;;11.65;61.70;101948.81;5038300;28;45307;-75
2023/02/19 09:39:05;;;;;;;;;2.25;2.25;;;;;11.60;61.80;101939.25;5056237;28;45300;-75
2023/02/19 09:41:30;;;;;;;;;1.75;1.75;;;;;11.58;61.42;101943.69;5056390;28;45575;-75
2023/02/19 09:44:01;;;;;;;;;3.00;3.00;;;;;11.53;61.70;101954.34;5056040;28;45321;-74
2023/02/19 09:46:46;;;;;;;;;3.00;3.00;;;;;11.48;61.75;101959.72;5056444;28;45912;-74
2023/02/19 09:49:20;;;;;;;;;2.75;2.75;;;;;11.52;62.03;101953.47;5056690;28;45319;-76
2023/02/19 09:51:54;;;;;;;;;3.00;3.00;;;;;11.54;61.96;101950.81;5055723;28;46407;-75
2023/02/19 09:54:25;;;;;;;;;4.00;4.00;;;;;11.47;61.51;101939.53;5056145;28;45358;-75
2023/02/19 09:56:53;;;;;;;;;2.75;2.75;;;;;11.61;61.75;101956.81;5055731;28;45302;-74
2023/02/19 09:59:23;;;;;;;;;3.75;3.75;;;;;11.63;61.59;101945.34;5056255;28;45392;-75
2023/02/19 10:01:58;;;;;;;;;3.00;3.00;;;;;11.62;61.85;101962.06;5057748;28;45381;-75
2023/02/19 10:04:23;;;;;;;;;3.00;3.00;;;;;11.65;62.13;101966.38;5057314;28;45375;-75
2023/02/19 10:06:50;;;;;;;;;4.00;4.00;;;;;11.67;61.75;101964.59;5059120;28;45315;-74
2023/02/19 10:09:24;;;;;;;;;3.50;3.25;;;;;11.72;61.50;101973.28;5057005;28;45362;-75
2023/02/19 10:11:50;;;;;;;;;3.00;3.00;;;;;11.79;61.51;101961.69;5056711;28;45349;-74
2023/02/19 10:14:25;;;;;;;;;4.00;4.00;;;;;11.80;61.85;101955.50;5056213;28;45276;-74
2023/02/19 10:16:52;;;;;;;;;4.00;4.00;;;;;11.96;61.76;101969.19;5057602;28;45359;-73
2023/02/19 10:19:17;;;;;;;;;3.50;3.00;;;;;12.03;61.23;101979.63;5057055;28;45423;-75
2023/02/19 10:21:43;;;;;;;;;3.50;3.50;;;;;12.07;60.94;101970.72;5055482;28;46205;-76
2023/02/19 10:24:19;;;;;;;;;4.00;4.00;;;;;12.11;60.87;101975.03;5038821;28;45439;-76
2023/02/19 10:26:44;;;;;;;;;4.00;3.50;;;;;12.12;61.17;101985.53;5058199;28;45314;-75
2023/02/19 10:29:10;;;;;;;;;4.25;4.25;;;;;12.15;61.01;101984.59;5056013;28;45459;-76
2023/02/19 10:31:35;;;;;;;;;4.25;4.25;;;;;12.23;60.66;101976.50;5055763;28;46570;-75
2023/02/19 10:34:01;;;;;;;;;4.00;4.00;;;;;12.23;60.28;101981.78;5055994;28;45460;-76
2023/02/19 10:36:37;;;;;;;;;4.00;4.00;;;;;12.27;60.43;101989.59;5037842;28;45460;-74
2023/02/19 10:39:26;;;;;;;;;4.00;4.00;;;;;12.31;59.99;101978.97;5037771;28;45264;-76
2023/02/19 10:41:53;;;;;;;;;4.75;4.75;;;;;12.41;59.84;101986.59;5055964;28;47701;-75
2023/02/19 10:44:26;;;;;;;;;3.00;3.00;;;;;12.55;59.60;102001.19;5055767;28;45373;-76
2023/02/19 10:46:56;;;;;;;;;5.50;5.50;;;;;12.57;59.40;102004.66;5055379;28;45263;-76
2023/02/19 10:49:27;;;;;;;;;4.25;4.25;;;;;12.60;59.33;102011.66;5056134;28;45346;-76
2023/02/19 10:51:55;;;;;;;;;4.00;4.00;;;;;12.64;59.18;102010.66;5055910;28;46884;-76
2023/02/19 10:54:23;;;;;;;;;3.25;3.25;;;;;12.65;58.13;102022.97;5037475;28;45452;-76
2023/02/19 10:56:48;;;;;;;;;3.00;3.00;;;;;12.63;58.51;102038.81;5055493;28;45264;-75
2023/02/19 10:59:16;;;;;;;;;2.75;2.75;;;;;12.65;58.86;102044.09;5056343;28;45655;-77
2023/02/19 11:02:02;;;;;;;;;3.00;3.00;;;;;12.70;58.40;102034.28;5056108;28;45175;-77
2023/02/19 11:04:37;;;;;;;;;4.00;4.00;;;;;12.75;58.50;102044.72;5055710;28;45391;-75
2023/02/19 11:07:17;;;;;;;;;4.00;4.00;;;;;12.74;58.43;102041.19;5055769;28;45390;-76
2023/02/19 11:09:46;;;;;;;;;5.25;5.25;;;;;12.76;58.14;102035.91;5055866;28;45174;-75
2023/02/19 11:12:24;;;;;;;;;3.00;3.00;;;;;12.73;57.88;102034.19;5057649;28;46206;-76
2023/02/19 11:14:49;;;;;;;;;5.75;4.75;;;;;12.77;58.17;102025.28;5055322;28;45346;-76
2023/02/19 11:17:25;;;;;;;;;3.75;3.75;;;;;12.79;58.05;102028.75;5037648;28;45458;-75
2023/02/19 11:19:54;;;;;;;;;5.00;4.50;;;;;12.80;57.47;102024.34;5055475;28;45436;-75
2023/02/19 11:22:30;;;;;;;;;4.75;4.75;;;;;12.83;57.76;102026.91;5054849;28;45279;-75
2023/02/19 11:25:06;;;;;;;;;5.00;5.00;;;;;12.77;57.58;102019.16;5055001;28;45302;-76
2023/02/19 11:27:32;;;;;;;;;5.25;5.25;;;;;12.88;57.40;102037.34;5059505;27;45283;-75
2023/02/19 11:30:29;;;;;;;;;5.25;5.25;;;;;12.90;57.09;102024.94;5071953;27;46130;-76
2023/02/19 11:32:54;;;;;;;;;7.00;7.00;;;;;12.97;57.59;102029.16;5075089;28;45479;-76
2023/02/19 11:35:23;;;;;;;;;5.00;5.00;;;;;12.96;56.98;102028.31;5079061;27;45399;-76
2023/02/19 11:38:00;;;;;;;;;5.00;5.00;;;;;12.99;56.78;102037.91;5079160;28;45375;-75
2023/02/19 11:40:40;;;;;;;;;5.00;5.00;;;;;12.99;56.75;102046.72;5080984;28;45180;-76
2023/02/19 11:43:25;;;;;;;;;3.00;3.00;;;;;12.98;56.42;102044.09;5078945;27;46063;-76
2023/02/19 11:46:08;;;;;;;;;5.75;5.75;;;;;12.92;56.46;102042.50;5078247;27;45304;-76
2023/02/19 11:48:48;;;;;;;;;28.00;28.00;;;;;12.96;56.57;102045.91;5084095;28;45280;-75
2023/02/19 11:51:30;;;;;;;;;9.50;9.50;;;;;12.97;56.36;102048.53;5089847;27;45504;-76
2023/02/19 11:54:16;;;;;;;;;3.50;3.50;;;;;13.14;56.09;102055.13;5083108;27;48827;-75
2023/02/19 11:56:43;;;;;;;;;3.25;3.25;;;;;13.23;56.11;102054.88;5078425;27;45354;-76
2023/02/19 11:59:09;;;;;;;;;4.00;4.00;;;;;13.33;55.64;102044.91;5062018;28;45442;-76